Terminal Aerodrome Forecast
Issued by NWS Paducah, KY

Home | Current Version | Previous Version | Text Only | Print | Product List | Glossary On
Versions: 1 2 3 4 5 6 7 8 9 10 11 12 13 14 15 16 17 18
000
FTUS43 KPAH 022339
TAFPAH
TAF
KPAH 022339Z 0300/0324 07005KT P6SM BKN040
     FM030600 11005KT P6SM OVC020
     FM031000 16005KT P6SM FEW009 OVC015
     FM031500 21008KT 6SM -SHRA OVC012
     FM032000 20010KT 5SM -RA BR OVC010=

USA.gov is the U.S. government's official web portal to all federal, state and local government web resources and services.